Time;durP1;ratioP1;P1;durP2;ratioP2;P2;SDS_P1;SDS_P2;PMS_P1;PMS_P2;Temp;Humidity;BMP_temperature;BMP_pressure;BME280_temperature;BME280_humidity;BME280_pressure;Samples;Min_cycle;Max_cycle;Signal;HPM_P1;HPM_P2
2021/06/30 00:00:57;;;;;;;5.90;1.00;;;;;;;;;;5028531;28;20087;-61
2021/06/30 00:06:29;;;;;;;5.97;1.00;;;;;;;;;;5026098;28;20117;-61
2021/06/30 00:08:55;;;;;;;5.82;0.90;;;;;;;;;;5027104;28;20045;-61
2021/06/30 00:11:21;;;;;;;6.90;0.90;;;;;;;;;;5025172;28;20037;-61
2021/06/30 00:13:47;;;;;;;3.40;0.75;;;;;;;;;;5027201;28;20044;-59
2021/06/30 00:16:13;;;;;;;5.68;0.75;;;;;;;;;;5026817;28;20029;-60
2021/06/30 00:18:39;;;;;;;2.88;0.80;;;;;;;;;;5026952;28;20132;-61
2021/06/30 00:21:05;;;;;;;3.10;0.77;;;;;;;;;;5030828;28;20052;-61
2021/06/30 00:23:31;;;;;;;3.10;0.77;;;;;;;;;;5028160;28;20146;-59
2021/06/30 00:25:57;;;;;;;3.75;0.90;;;;;;;;;;5027979;28;20158;-59
2021/06/30 00:28:23;;;;;;;3.83;0.90;;;;;;;;;;5024543;28;20045;-60
2021/06/30 00:30:49;;;;;;;4.82;0.82;;;;;;;;;;5014266;28;20045;-61
2021/06/30 00:33:15;;;;;;;2.72;0.60;;;;;;;;;;5013961;28;20045;-58
2021/06/30 00:35:41;;;;;;;4.00;0.90;;;;;;;;;;5015087;28;20187;-60
2021/06/30 00:38:07;;;;;;;3.70;0.75;;;;;;;;;;5014481;28;20077;-61
2021/06/30 00:40:32;;;;;;;4.38;1.00;;;;;;;;;;5013865;28;20033;-60
2021/06/30 00:42:58;;;;;;;14.82;1.08;;;;;;;;;;5013790;28;20041;-61
2021/06/30 00:45:24;;;;;;;3.92;0.85;;;;;;;;;;5016031;28;20072;-60
2021/06/30 00:47:50;;;;;;;5.50;1.15;;;;;;;;;;5017657;28;20042;-60
2021/06/30 00:50:17;;;;;;;5.55;1.17;;;;;;;;;;5027639;28;20235;-59
2021/06/30 00:53:42;;;;;;;6.90;0.90;;;;;;;;;;5016243;28;20037;-61
2021/06/30 00:56:07;;;;;;;3.58;0.90;;;;;;;;;;5019396;28;20118;-60
2021/06/30 00:58:33;;;;;;;4.53;0.98;;;;;;;;;;5019050;28;20744;-59
2021/06/30 01:00:59;;;;;;;3.72;0.90;;;;;;;;;;5015392;28;20121;-59
2021/06/30 01:03:25;;;;;;;2.90;0.70;;;;;;;;;;5017369;28;20576;-59
2021/06/30 01:05:50;;;;;;;8.15;1.17;;;;;;;;;;5017014;28;20041;-59
2021/06/30 01:08:16;;;;;;;4.30;0.90;;;;;;;;;;5018027;28;20056;-58
2021/06/30 01:10:42;;;;;;;3.70;0.93;;;;;;;;;;5016476;28;20155;-58
2021/06/30 01:13:08;;;;;;;7.88;1.10;;;;;;;;;;5017256;28;20057;-59
2021/06/30 01:15:47;;;;;;;3.22;0.90;;;;;;;;;;5016048;28;20124;-59
2021/06/30 01:18:13;;;;;;;2.90;1.00;;;;;;;;;;5017243;28;20050;-59
2021/06/30 01:20:39;;;;;;;2.53;0.90;;;;;;;;;;5016522;28;20059;-60
2021/06/30 01:23:06;;;;;;;3.97;1.05;;;;;;;;;;5017368;28;20041;-60
2021/06/30 01:25:32;;;;;;;10.65;1.10;;;;;;;;;;5016397;28;20045;-62
2021/06/30 01:27:58;;;;;;;4.05;1.00;;;;;;;;;;5015956;28;20041;-58
2021/06/30 01:30:24;;;;;;;4.25;0.80;;;;;;;;;;5016955;28;20045;-58
2021/06/30 01:32:49;;;;;;;7.05;1.10;;;;;;;;;;5016780;28;20045;-58
2021/06/30 01:35:19;;;;;;;3.13;0.88;;;;;;;;;;5016632;28;20396;-60
2021/06/30 01:37:46;;;;;;;3.92;1.02;;;;;;;;;;5014146;28;20587;-58
2021/06/30 01:40:12;;;;;;;2.38;0.85;;;;;;;;;;5016648;28;20063;-60
2021/06/30 01:42:38;;;;;;;3.22;1.00;;;;;;;;;;5015444;28;20033;-58
2021/06/30 01:45:04;;;;;;;5.25;0.98;;;;;;;;;;5016512;28;20083;-60
2021/06/30 01:47:30;;;;;;;4.63;1.08;;;;;;;;;;5016708;28;20409;-58
2021/06/30 01:49:55;;;;;;;8.80;1.10;;;;;;;;;;5016344;28;20034;-59
2021/06/30 01:52:21;;;;;;;2.90;1.13;;;;;;;;;;5016685;28;20041;-57
2021/06/30 01:54:47;;;;;;;5.15;1.30;;;;;;;;;;5012918;28;20061;-57
2021/06/30 01:57:13;;;;;;;5.88;1.25;;;;;;;;;;5016143;28;20797;-60
2021/06/30 01:59:40;;;;;;;4.90;1.25;;;;;;;;;;5015227;28;20038;-60
2021/06/30 02:02:05;;;;;;;3.78;1.05;;;;;;;;;;5016810;28;20041;-59
2021/06/30 02:04:31;;;;;;;5.30;1.17;;;;;;;;;;5015714;28;22206;-59
2021/06/30 02:06:57;;;;;;;10.57;1.20;;;;;;;;;;5016813;28;20490;-57
2021/06/30 02:09:23;;;;;;;3.50;1.08;;;;;;;;;;5014818;28;20045;-59
2021/06/30 02:11:49;;;;;;;4.07;1.25;;;;;;;;;;5016522;28;20046;-60
2021/06/30 02:14:14;;;;;;;9.52;1.50;;;;;;;;;;5015769;28;20053;-60
2021/06/30 02:16:40;;;;;;;5.18;1.50;;;;;;;;;;5017692;28;20555;-57
2021/06/30 02:19:06;;;;;;;4.57;1.05;;;;;;;;;;5015682;28;21410;-59
2021/06/30 02:21:33;;;;;;;4.85;1.10;;;;;;;;;;5015767;28;20061;-59
2021/06/30 02:23:59;;;;;;;4.57;1.20;;;;;;;;;;5016701;28;20103;-58
2021/06/30 02:26:27;;;;;;;5.43;1.50;;;;;;;;;;5014600;28;20045;-58
2021/06/30 02:28:53;;;;;;;7.47;1.25;;;;;;;;;;5015455;28;20033;-60
2021/06/30 02:31:18;;;;;;;7.45;1.35;;;;;;;;;;5015464;28;20041;-60
2021/06/30 02:33:45;;;;;;;4.88;1.35;;;;;;;;;;5015340;28;20069;-61
2021/06/30 02:36:11;;;;;;;4.15;1.20;;;;;;;;;;5016669;28;20298;-58
2021/06/30 02:38:37;;;;;;;2.85;1.10;;;;;;;;;;5014788;28;20048;-59
2021/06/30 02:41:03;;;;;;;3.17;1.10;;;;;;;;;;5013632;28;20068;-57
2021/06/30 02:43:28;;;;;;;3.50;1.08;;;;;;;;;;5015133;28;20041;-60
2021/06/30 02:45:54;;;;;;;6.78;1.35;;;;;;;;;;5015683;28;20049;-59
2021/06/30 02:48:21;;;;;;;6.03;1.67;;;;;;;;;;5013729;28;20044;-58
2021/06/30 02:50:47;;;;;;;6.07;1.63;;;;;;;;;;5016491;28;20052;-56
2021/06/30 02:53:13;;;;;;;4.47;1.42;;;;;;;;;;5016999;28;20945;-58
2021/06/30 02:55:39;;;;;;;3.72;1.25;;;;;;;;;;5016674;28;20047;-59
2021/06/30 02:58:05;;;;;;;4.85;1.30;;;;;;;;;;5015085;28;20049;-59
2021/06/30 03:00:31;;;;;;;6.35;1.17;;;;;;;;;;5015025;28;20041;-59
2021/06/30 03:02:57;;;;;;;5.65;1.13;;;;;;;;;;5015084;28;20367;-59
2021/06/30 03:05:23;;;;;;;5.15;1.35;;;;;;;;;;5014827;28;20917;-60
2021/06/30 03:07:50;;;;;;;5.72;1.42;;;;;;;;;;5015932;28;20037;-57
2021/06/30 03:10:17;;;;;;;4.10;1.00;;;;;;;;;;5016673;28;20041;-61
2021/06/30 03:12:43;;;;;;;4.57;1.17;;;;;;;;;;5014458;28;20400;-59
2021/06/30 03:15:10;;;;;;;7.25;1.48;;;;;;;;;;5015942;28;20057;-60
2021/06/30 03:17:37;;;;;;;3.88;1.33;;;;;;;;;;5015445;28;20057;-59
2021/06/30 03:20:07;;;;;;;3.53;1.13;;;;;;;;;;5018749;28;20491;-59
2021/06/30 03:22:32;;;;;;;6.90;1.40;;;;;;;;;;5015871;28;20075;-58
2021/06/30 03:24:59;;;;;;;5.25;1.33;;;;;;;;;;5015313;28;20128;-58
2021/06/30 03:27:24;;;;;;;6.55;1.17;;;;;;;;;;5015493;28;20398;-58
2021/06/30 03:29:50;;;;;;;4.00;1.08;;;;;;;;;;5014148;28;20042;-59
2021/06/30 03:32:16;;;;;;;4.25;1.33;;;;;;;;;;5016764;28;20154;-60
2021/06/30 03:34:42;;;;;;;5.60;1.45;;;;;;;;;;5015153;28;20045;-59
2021/06/30 03:37:08;;;;;;;4.18;1.10;;;;;;;;;;5015342;28;20046;-58
2021/06/30 03:39:33;;;;;;;9.45;1.40;;;;;;;;;;5013789;28;20086;-57
2021/06/30 03:41:59;;;;;;;2.90;1.00;;;;;;;;;;5014768;28;20033;-58
2021/06/30 03:44:25;;;;;;;6.07;1.60;;;;;;;;;;5013993;28;20431;-59
2021/06/30 03:46:51;;;;;;;5.10;1.30;;;;;;;;;;5014855;28;20030;-60
2021/06/30 03:49:17;;;;;;;7.68;1.27;;;;;;;;;;5014103;28;20034;-57
2021/06/30 03:51:43;;;;;;;4.82;1.17;;;;;;;;;;5014155;28;20053;-59
2021/06/30 03:54:09;;;;;;;3.05;0.98;;;;;;;;;;5015614;28;20045;-58
2021/06/30 03:56:35;;;;;;;3.72;1.40;;;;;;;;;;5015644;28;20041;-59
2021/06/30 03:59:02;;;;;;;4.10;1.35;;;;;;;;;;5014298;28;20045;-59
2021/06/30 04:01:28;;;;;;;4.22;1.08;;;;;;;;;;5014422;28;20167;-59
2021/06/30 04:04:00;;;;;;;3.08;1.02;;;;;;;;;;5014499;28;20542;-57
2021/06/30 04:06:26;;;;;;;4.75;1.30;;;;;;;;;;5013216;28;20049;-59
2021/06/30 04:08:52;;;;;;;4.13;1.52;;;;;;;;;;5013223;28;20629;-60
2021/06/30 04:11:18;;;;;;;4.53;1.20;;;;;;;;;;5015349;28;20033;-58
2021/06/30 04:13:44;;;;;;;6.00;1.40;;;;;;;;;;5014483;28;20053;-60
2021/06/30 04:16:10;;;;;;;7.18;1.27;;;;;;;;;;5015371;28;20029;-58
2021/06/30 04:18:36;;;;;;;4.10;0.98;;;;;;;;;;5013262;28;20080;-60
2021/06/30 04:21:02;;;;;;;4.35;1.50;;;;;;;;;;5018710;28;20040;-59
2021/06/30 04:23:28;;;;;;;13.43;1.40;;;;;;;;;;5018526;28;20033;-60
2021/06/30 04:25:54;;;;;;;4.50;1.30;;;;;;;;;;5018440;28;20052;-60
2021/06/30 04:28:19;;;;;;;5.50;1.25;;;;;;;;;;5006904;28;20033;-57
2021/06/30 04:30:45;;;;;;;6.63;1.33;;;;;;;;;;5018160;28;20391;-59
2021/06/30 04:33:11;;;;;;;3.33;1.30;;;;;;;;;;5019225;28;20050;-60
2021/06/30 04:35:37;;;;;;;12.93;1.98;;;;;;;;;;5017108;28;20494;-59
2021/06/30 04:38:04;;;;;;;3.83;1.30;;;;;;;;;;5017548;28;20743;-61
2021/06/30 04:40:29;;;;;;;4.95;1.42;;;;;;;;;;5016821;28;20110;-61
2021/06/30 04:42:55;;;;;;;5.35;1.55;;;;;;;;;;5018237;28;20495;-61
2021/06/30 04:45:21;;;;;;;4.40;1.30;;;;;;;;;;5017158;28;20041;-60
2021/06/30 04:47:47;;;;;;;4.18;1.75;;;;;;;;;;5017608;28;20033;-60
2021/06/30 04:50:13;;;;;;;3.53;1.50;;;;;;;;;;5017003;28;20091;-60
2021/06/30 04:52:39;;;;;;;8.60;1.60;;;;;;;;;;5017744;28;20119;-60
2021/06/30 04:55:05;;;;;;;6.05;1.50;;;;;;;;;;5017027;28;20045;-59
2021/06/30 04:57:31;;;;;;;8.10;1.50;;;;;;;;;;5010615;28;20049;-56
2021/06/30 04:59:57;;;;;;;4.57;1.23;;;;;;;;;;5018199;28;20419;-59
2021/06/30 05:02:23;;;;;;;3.83;1.40;;;;;;;;;;5017883;28;20091;-59
2021/06/30 05:04:48;;;;;;;5.55;1.40;;;;;;;;;;5019163;28;20041;-60
2021/06/30 05:07:14;;;;;;;5.88;1.40;;;;;;;;;;5018461;28;20060;-61
2021/06/30 05:09:40;;;;;;;4.63;1.55;;;;;;;;;;5017841;28;20072;-62
2021/06/30 05:12:06;;;;;;;3.78;1.35;;;;;;;;;;5017746;28;20037;-60
2021/06/30 05:14:32;;;;;;;3.90;1.40;;;;;;;;;;5018809;28;20174;-58
2021/06/30 05:16:58;;;;;;;4.97;1.40;;;;;;;;;;5007511;28;20120;-59
2021/06/30 05:19:24;;;;;;;4.35;1.58;;;;;;;;;;5015738;28;20048;-59
2021/06/30 05:21:50;;;;;;;5.75;1.30;;;;;;;;;;5018295;28;20104;-58
2021/06/30 05:24:16;;;;;;;5.93;1.40;;;;;;;;;;5018313;28;20030;-57
2021/06/30 05:26:41;;;;;;;3.45;1.20;;;;;;;;;;5016853;28;20062;-60
2021/06/30 05:29:07;;;;;;;5.78;1.35;;;;;;;;;;5017212;28;20049;-59
2021/06/30 05:31:33;;;;;;;4.97;1.60;;;;;;;;;;5015570;28;20620;-58
2021/06/30 05:33:59;;;;;;;8.00;1.55;;;;;;;;;;5016964;28;20054;-60
2021/06/30 05:36:25;;;;;;;4.32;1.60;;;;;;;;;;5016182;28;20037;-60
2021/06/30 05:38:51;;;;;;;4.55;1.33;;;;;;;;;;5030773;28;20049;-57
2021/06/30 05:41:17;;;;;;;7.18;1.58;;;;;;;;;;5036979;28;20295;-59
2021/06/30 05:43:43;;;;;;;5.25;1.90;;;;;;;;;;5016488;28;20041;-62
2021/06/30 05:46:08;;;;;;;7.63;1.75;;;;;;;;;;5016379;28;20128;-58
2021/06/30 05:48:35;;;;;;;6.40;1.75;;;;;;;;;;5014713;28;20038;-63
2021/06/30 05:51:01;;;;;;;8.63;1.38;;;;;;;;;;5016101;28;20136;-60
2021/06/30 05:53:27;;;;;;;3.70;1.60;;;;;;;;;;5010361;28;20524;-60
2021/06/30 05:55:52;;;;;;;4.90;1.52;;;;;;;;;;5017074;28;20061;-61
2021/06/30 05:58:18;;;;;;;5.85;1.58;;;;;;;;;;5035797;28;20057;-61
2021/06/30 06:00:44;;;;;;;5.32;1.48;;;;;;;;;;5015422;28;20056;-59
2021/06/30 06:03:10;;;;;;;6.15;1.55;;;;;;;;;;5015594;28;20044;-60
2021/06/30 06:05:37;;;;;;;6.85;1.60;;;;;;;;;;5015965;28;20406;-60
2021/06/30 06:08:03;;;;;;;4.43;1.65;;;;;;;;;;5015127;28;20046;-60
2021/06/30 06:10:29;;;;;;;6.13;1.60;;;;;;;;;;5015598;28;20045;-61
2021/06/30 06:12:55;;;;;;;4.65;1.40;;;;;;;;;;5017556;28;20029;-59
2021/06/30 06:15:21;;;;;;;6.22;1.83;;;;;;;;;;5015065;28;20049;-59
2021/06/30 06:17:47;;;;;;;5.80;1.77;;;;;;;;;;5015208;28;20057;-60
2021/06/30 06:20:13;;;;;;;4.95;1.70;;;;;;;;;;5008480;28;20037;-60
2021/06/30 06:22:39;;;;;;;6.65;2.00;;;;;;;;;;5012213;28;20041;-60
2021/06/30 06:25:06;;;;;;;4.13;1.40;;;;;;;;;;5014348;28;20033;-59
2021/06/30 06:27:32;;;;;;;8.68;1.60;;;;;;;;;;5012758;28;20402;-58
2021/06/30 06:29:58;;;;;;;6.70;1.80;;;;;;;;;;5015475;28;20045;-60
2021/06/30 06:32:24;;;;;;;8.00;1.63;;;;;;;;;;5014176;28;20115;-59
2021/06/30 06:34:51;;;;;;;5.93;1.73;;;;;;;;;;5014011;28;20041;-59
2021/06/30 06:37:22;;;;;;;8.60;1.80;;;;;;;;;;5011421;28;20052;-58
2021/06/30 06:39:48;;;;;;;4.13;1.70;;;;;;;;;;5013582;28;20038;-59
2021/06/30 06:42:14;;;;;;;6.53;1.83;;;;;;;;;;5011654;28;20616;-61
2021/06/30 06:44:42;;;;;;;4.40;1.80;;;;;;;;;;5014023;28;20123;-60
2021/06/30 06:47:08;;;;;;;6.97;1.65;;;;;;;;;;5012676;28;20037;-60
2021/06/30 06:49:34;;;;;;;6.22;1.75;;;;;;;;;;5013078;28;20044;-59
2021/06/30 06:52:01;;;;;;;6.45;1.30;;;;;;;;;;5014738;28;20052;-58
2021/06/30 06:54:27;;;;;;;6.50;1.88;;;;;;;;;;5014442;28;20041;-58
2021/06/30 06:56:53;;;;;;;6.15;1.65;;;;;;;;;;5013405;28;20045;-60
2021/06/30 06:59:19;;;;;;;9.02;1.73;;;;;;;;;;5013456;28;20484;-61
2021/06/30 07:01:45;;;;;;;5.95;1.75;;;;;;;;;;5012572;28;20033;-60
2021/06/30 07:04:11;;;;;;;5.70;1.50;;;;;;;;;;5013619;28;22207;-60
2021/06/30 07:06:37;;;;;;;7.60;1.80;;;;;;;;;;5013346;28;20033;-60
2021/06/30 07:09:03;;;;;;;8.80;1.92;;;;;;;;;;5012476;28;20045;-59
2021/06/30 07:11:28;;;;;;;5.57;1.70;;;;;;;;;;5013492;28;20052;-60
2021/06/30 07:13:54;;;;;;;8.23;2.00;;;;;;;;;;5012425;28;20091;-62
2021/06/30 07:16:20;;;;;;;6.97;1.90;;;;;;;;;;5013569;28;20519;-61
2021/06/30 07:18:46;;;;;;;8.98;2.05;;;;;;;;;;5013125;28;20064;-60
2021/06/30 07:21:12;;;;;;;7.45;2.10;;;;;;;;;;5013903;28;20042;-60
2021/06/30 07:23:38;;;;;;;5.65;1.65;;;;;;;;;;5014854;28;20996;-61
2021/06/30 07:26:05;;;;;;;5.90;1.85;;;;;;;;;;5014850;28;20041;-61
2021/06/30 07:28:31;;;;;;;7.25;2.33;;;;;;;;;;5013498;28;20046;-59
2021/06/30 07:30:57;;;;;;;5.93;1.95;;;;;;;;;;5013173;28;20601;-58
2021/06/30 07:33:23;;;;;;;9.25;1.85;;;;;;;;;;5012607;28;20491;-59
2021/06/30 07:35:49;;;;;;;6.45;1.70;;;;;;;;;;5014675;28;20072;-61
2021/06/30 07:38:15;;;;;;;8.13;1.90;;;;;;;;;;5017195;28;20100;-61
2021/06/30 07:40:40;;;;;;;6.35;1.60;;;;;;;;;;5013963;28;20865;-59
2021/06/30 07:43:06;;;;;;;5.55;1.63;;;;;;;;;;5014546;28;20059;-61
2021/06/30 07:45:32;;;;;;;6.00;1.45;;;;;;;;;;5013336;28;20048;-60
2021/06/30 07:47:58;;;;;;;8.15;1.65;;;;;;;;;;5012716;28;20060;-59
2021/06/30 07:50:24;;;;;;;4.28;1.70;;;;;;;;;;5013903;28;20410;-60
2021/06/30 07:52:51;;;;;;;10.45;1.70;;;;;;;;;;5014574;28;20041;-61
2021/06/30 07:55:17;;;;;;;5.88;1.63;;;;;;;;;;5018703;28;20499;-61
2021/06/30 07:57:43;;;;;;;5.60;1.67;;;;;;;;;;5016583;28;20400;-60
2021/06/30 08:00:09;;;;;;;6.82;1.80;;;;;;;;;;5015734;28;20041;-61
2021/06/30 08:02:36;;;;;;;6.57;1.60;;;;;;;;;;5031785;28;20060;-58
2021/06/30 08:05:03;;;;;;;5.13;1.45;;;;;;;;;;5018175;28;20702;-61
2021/06/30 08:07:29;;;;;;;4.68;1.73;;;;;;;;;;5017223;28;20041;-60
2021/06/30 08:09:55;;;;;;;7.03;1.83;;;;;;;;;;5018167;28;20120;-61
2021/06/30 08:12:21;;;;;;;7.75;1.80;;;;;;;;;;5016552;28;20037;-60
2021/06/30 08:14:46;;;;;;;7.32;1.60;;;;;;;;;;5016664;28;20647;-60
2021/06/30 08:17:12;;;;;;;5.30;1.95;;;;;;;;;;5015324;28;20037;-61
2021/06/30 08:19:38;;;;;;;10.00;1.73;;;;;;;;;;5016208;28;20751;-61
2021/06/30 08:22:04;;;;;;;7.53;1.75;;;;;;;;;;5017719;28;20081;-60
2021/06/30 08:24:30;;;;;;;10.77;1.80;;;;;;;;;;5016467;28;20787;-60
2021/06/30 08:26:56;;;;;;;12.10;1.90;;;;;;;;;;5017143;28;20437;-61
2021/06/30 08:29:24;;;;;;;6.30;1.58;;;;;;;;;;5016671;28;20045;-59
2021/06/30 08:31:49;;;;;;;4.10;1.52;;;;;;;;;;5017280;28;20045;-59
2021/06/30 08:34:15;;;;;;;10.00;1.77;;;;;;;;;;5017022;28;20053;-60
2021/06/30 08:36:41;;;;;;;7.35;2.10;;;;;;;;;;5016896;28;20057;-59
2021/06/30 08:39:09;;;;;;;6.00;2.00;;;;;;;;;;5016022;28;21165;-60
2021/06/30 08:41:35;;;;;;;9.35;1.92;;;;;;;;;;5017267;28;20511;-57
2021/06/30 08:44:01;;;;;;;7.53;1.80;;;;;;;;;;5017315;28;20091;-58
2021/06/30 08:46:27;;;;;;;5.13;1.90;;;;;;;;;;5015502;28;20048;-60
2021/06/30 08:48:57;;;;;;;8.20;1.85;;;;;;;;;;5017200;28;20034;-60
2021/06/30 08:51:25;;;;;;;4.93;1.88;;;;;;;;;;5016118;28;20073;-60
2021/06/30 08:53:52;;;;;;;7.70;2.17;;;;;;;;;;5016138;28;20675;-61
2021/06/30 08:56:21;;;;;;;5.07;1.70;;;;;;;;;;5016673;28;20089;-61
2021/06/30 08:58:50;;;;;;;5.68;1.95;;;;;;;;;;5015878;28;20063;-60
2021/06/30 09:01:16;;;;;;;7.05;2.00;;;;;;;;;;5015498;28;20041;-60
2021/06/30 09:03:49;;;;;;;7.03;1.90;;;;;;;;;;5015254;28;20080;-59
2021/06/30 09:06:17;;;;;;;9.38;2.30;;;;;;;;;;5016926;28;20057;-59
2021/06/30 09:08:43;;;;;;;9.23;2.05;;;;;;;;;;5016815;28;20049;-60
2021/06/30 09:11:12;;;;;;;10.98;1.73;;;;;;;;;;5015907;28;20041;-60
2021/06/30 09:13:38;;;;;;;5.05;1.85;;;;;;;;;;5016695;28;20037;-60
2021/06/30 09:16:04;;;;;;;4.97;1.90;;;;;;;;;;5017962;28;20056;-58
2021/06/30 09:18:33;;;;;;;9.90;1.90;;;;;;;;;;5017510;28;20060;-61
2021/06/30 09:21:18;;;;;;;4.70;1.85;;;;;;;;;;5018672;28;20042;-59
2021/06/30 09:24:02;;;;;;;5.75;2.03;;;;;;;;;;5017224;28;20048;-59
2021/06/30 09:26:30;;;;;;;7.43;2.42;;;;;;;;;;5016682;28;20148;-60
2021/06/30 09:29:06;;;;;;;6.47;2.17;;;;;;;;;;5018231;28;20033;-61
2021/06/30 09:31:32;;;;;;;11.13;2.05;;;;;;;;;;5017782;28;20378;-59
2021/06/30 09:33:58;;;;;;;8.88;2.20;;;;;;;;;;5016749;28;20041;-59
2021/06/30 09:36:25;;;;;;;5.53;2.22;;;;;;;;;;5016083;28;20057;-60
2021/06/30 09:38:51;;;;;;;9.43;2.40;;;;;;;;;;5016261;28;20778;-60
2021/06/30 09:41:23;;;;;;;6.88;1.77;;;;;;;;;;5016759;28;20049;-58
2021/06/30 09:43:49;;;;;;;8.23;2.05;;;;;;;;;;5016416;28;20694;-59
2021/06/30 09:46:25;;;;;;;9.20;2.10;;;;;;;;;;5016767;28;20037;-59
2021/06/30 09:48:55;;;;;;;4.05;1.88;;;;;;;;;;5015050;28;20091;-59
2021/06/30 09:51:21;;;;;;;6.78;1.77;;;;;;;;;;5015564;28;20057;-59
2021/06/30 09:53:47;;;;;;;11.80;2.10;;;;;;;;;;5017236;28;20045;-60
2021/06/30 09:56:13;;;;;;;9.98;2.20;;;;;;;;;;5020594;28;20045;-61
2021/06/30 09:58:39;;;;;;;5.03;1.63;;;;;;;;;;5017301;28;20045;-60
2021/06/30 10:01:18;;;;;;;6.72;2.50;;;;;;;;;;5012739;28;20029;-60
2021/06/30 10:03:45;;;;;;;13.90;2.20;;;;;;;;;;5017577;28;22101;-60
2021/06/30 10:06:30;;;;;;;7.63;2.08;;;;;;;;;;5018514;28;20132;-61
2021/06/30 10:08:57;;;;;;;6.43;1.90;;;;;;;;;;5017279;28;20060;-60
2021/06/30 10:11:23;;;;;;;4.22;1.73;;;;;;;;;;5018819;28;20037;-59
2021/06/30 10:13:49;;;;;;;5.22;1.77;;;;;;;;;;5018967;28;20037;-60
2021/06/30 10:16:18;;;;;;;12.43;2.10;;;;;;;;;;5019247;28;20093;-59
2021/06/30 10:18:45;;;;;;;9.02;2.20;;;;;;;;;;5016810;28;20049;-61
2021/06/30 10:21:11;;;;;;;4.22;1.77;;;;;;;;;;5020104;28;20454;-59
2021/06/30 10:23:38;;;;;;;5.90;2.05;;;;;;;;;;5020351;28;20270;-61
2021/06/30 10:26:04;;;;;;;7.95;2.00;;;;;;;;;;5019104;28;20110;-60
2021/06/30 10:28:30;;;;;;;6.38;1.95;;;;;;;;;;5018134;28;22171;-59
2021/06/30 10:30:56;;;;;;;5.85;1.95;;;;;;;;;;5020652;28;20034;-62
2021/06/30 10:33:33;;;;;;;8.02;2.10;;;;;;;;;;5019081;28;20901;-59
2021/06/30 10:35:59;;;;;;;6.97;2.25;;;;;;;;;;5015266;28;20134;-61
2021/06/30 10:38:43;;;;;;;7.47;2.08;;;;;;;;;;5016994;28;22090;-61
2021/06/30 10:41:29;;;;;;;7.45;2.15;;;;;;;;;;5020358;28;20477;-61
2021/06/30 10:44:07;;;;;;;5.10;1.90;;;;;;;;;;5033165;28;20037;-61
2021/06/30 10:46:33;;;;;;;6.97;2.15;;;;;;;;;;5018169;28;20041;-60
2021/06/30 10:49:15;;;;;;;4.97;2.03;;;;;;;;;;5019439;28;20083;-61
2021/06/30 10:51:45;;;;;;;10.60;2.17;;;;;;;;;;5019741;28;20050;-62
2021/06/30 10:54:29;;;;;;;7.40;2.20;;;;;;;;;;5021660;28;20029;-61
2021/06/30 10:57:27;;;;;;;4.97;2.33;;;;;;;;;;5018843;28;20045;-60
2021/06/30 11:00:03;;;;;;;5.35;2.15;;;;;;;;;;5019498;28;20179;-62
2021/06/30 11:02:31;;;;;;;7.38;2.40;;;;;;;;;;5017276;28;20089;-60
2021/06/30 11:04:57;;;;;;;14.57;2.33;;;;;;;;;;5023315;28;20042;-61
2021/06/30 11:07:49;;;;;;;10.10;2.20;;;;;;;;;;5018909;28;22162;-61
2021/06/30 11:10:20;;;;;;;5.30;1.92;;;;;;;;;;5018914;28;20037;-59
2021/06/30 11:12:55;;;;;;;6.35;2.00;;;;;;;;;;5020564;28;20053;-62
2021/06/30 11:15:47;;;;;;;12.32;2.33;;;;;;;;;;5020982;28;20084;-61
2021/06/30 11:18:13;;;;;;;5.80;2.30;;;;;;;;;;5020009;28;20176;-62
2021/06/30 11:20:42;;;;;;;6.20;2.45;;;;;;;;;;5021111;28;21239;-61
2021/06/30 11:23:18;;;;;;;4.18;2.00;;;;;;;;;;5021798;28;20044;-62
2021/06/30 11:25:44;;;;;;;6.15;2.58;;;;;;;;;;5020390;28;20044;-60
2021/06/30 11:28:32;;;;;;;5.72;2.22;;;;;;;;;;5019006;28;20056;-61
2021/06/30 11:30:58;;;;;;;8.70;2.75;;;;;;;;;;5020264;28;22080;-60
2021/06/30 11:33:24;;;;;;;8.77;2.50;;;;;;;;;;5021779;28;20038;-61
2021/06/30 11:35:50;;;;;;;7.10;2.33;;;;;;;;;;5021337;28;20098;-60
2021/06/30 11:38:18;;;;;;;4.13;2.05;;;;;;;;;;5019947;28;20053;-60
2021/06/30 11:43:19;;;;;;;8.90;2.50;;;;;;;;;;5022699;28;20052;-60
2021/06/30 11:45:45;;;;;;;5.90;2.42;;;;;;;;;;5023068;28;20033;-62
2021/06/30 11:48:12;;;;;;;9.38;2.53;;;;;;;;;;5020323;28;20398;-61
2021/06/30 11:50:54;;;;;;;7.03;2.30;;;;;;;;;;5016428;28;20096;-60
2021/06/30 11:53:32;;;;;;;6.15;2.47;;;;;;;;;;5017951;28;20045;-60
2021/06/30 11:55:58;;;;;;;5.82;2.20;;;;;;;;;;5016856;28;20040;-61
2021/06/30 11:58:38;;;;;;;17.10;2.65;;;;;;;;;;5015183;28;20053;-61
2021/06/30 12:01:14;;;;;;;6.60;2.15;;;;;;;;;;5016482;28;20026;-62
2021/06/30 12:03:39;;;;;;;9.85;2.40;;;;;;;;;;5016109;28;20410;-61
2021/06/30 12:06:19;;;;;;;5.57;2.40;;;;;;;;;;5018645;28;20056;-61
2021/06/30 12:09:03;;;;;;;6.63;2.65;;;;;;;;;;5016999;28;20091;-61
2021/06/30 12:11:29;;;;;;;4.88;2.38;;;;;;;;;;5012162;28;20044;-59
2021/06/30 12:14:03;;;;;;;7.10;3.03;;;;;;;;;;5017306;28;20053;-60
2021/06/30 12:16:39;;;;;;;13.07;4.43;;;;;;;;;;5018618;28;20087;-60
2021/06/30 12:19:12;;;;;;;11.95;3.35;;;;;;;;;;5015404;28;20046;-62
2021/06/30 12:21:38;;;;;;;6.07;2.58;;;;;;;;;;5020407;28;20267;-59
2021/06/30 12:24:11;;;;;;;9.07;2.22;;;;;;;;;;5018071;28;21075;-59
2021/06/30 12:26:53;;;;;;;6.80;2.22;;;;;;;;;;5018923;28;20305;-58
2021/06/30 12:29:19;;;;;;;5.35;2.50;;;;;;;;;;5016506;28;21037;-58
2021/06/30 12:31:45;;;;;;;6.80;2.30;;;;;;;;;;5016763;28;20042;-59
2021/06/30 12:34:11;;;;;;;8.65;2.50;;;;;;;;;;5015776;28;20050;-59
2021/06/30 12:36:37;;;;;;;11.80;2.33;;;;;;;;;;5015923;28;20091;-57
2021/06/30 12:39:19;;;;;;;7.05;2.17;;;;;;;;;;5015326;28;20049;-59
2021/06/30 12:42:04;;;;;;;8.32;2.65;;;;;;;;;;5021017;28;20514;-59
2021/06/30 12:44:30;;;;;;;6.53;2.25;;;;;;;;;;5024125;28;20041;-57
2021/06/30 12:47:22;;;;;;;16.80;2.80;;;;;;;;;;5022208;28;20073;-59
2021/06/30 12:50:05;;;;;;;8.02;2.70;;;;;;;;;;5020123;28;20059;-58
2021/06/30 12:52:31;;;;;;;5.57;2.25;;;;;;;;;;5021500;28;20036;-62
2021/06/30 12:54:58;;;;;;;11.90;2.67;;;;;;;;;;5022076;28;20525;-59
2021/06/30 12:57:24;;;;;;;7.18;2.08;;;;;;;;;;5036638;28;20065;-60
2021/06/30 13:00:08;;;;;;;5.50;2.28;;;;;;;;;;5021127;28;20347;-59
2021/06/30 13:02:34;;;;;;;8.75;2.50;;;;;;;;;;5021390;28;20755;-60
2021/06/30 13:05:18;;;;;;;5.45;1.92;;;;;;;;;;5022182;28;20041;-60
2021/06/30 13:07:45;;;;;;;8.38;2.15;;;;;;;;;;5021086;28;20045;-59
2021/06/30 13:10:14;;;;;;;9.20;2.67;;;;;;;;;;5021000;28;20101;-61
2021/06/30 13:12:40;;;;;;;5.88;2.03;;;;;;;;;;5023918;28;20243;-61
2021/06/30 13:15:26;;;;;;;8.75;2.22;;;;;;;;;;5025616;28;20046;-59
2021/06/30 13:17:53;;;;;;;6.07;2.13;;;;;;;;;;5022701;28;20120;-61
2021/06/30 13:20:19;;;;;;;7.78;2.22;;;;;;;;;;5023268;28;20072;-60
2021/06/30 13:22:46;;;;;;;5.07;1.98;;;;;;;;;;5022294;28;20033;-60
2021/06/30 13:25:27;;;;;;;7.57;2.20;;;;;;;;;;5024315;28;20042;-60
2021/06/30 13:28:03;;;;;;;5.63;2.30;;;;;;;;;;5022123;28;20048;-59
2021/06/30 13:36:08;;;;;;;12.50;2.30;;;;;;;;;;5020264;28;20065;-59
2021/06/30 13:38:41;;;;;;;11.63;2.47;;;;;;;;;;5020195;28;20046;-60
2021/06/30 13:41:09;;;;;;;11.00;2.63;;;;;;;;;;5021871;28;20041;-60
2021/06/30 13:43:35;;;;;;;6.40;2.08;;;;;;;;;;5021524;28;20038;-61
2021/06/30 13:46:03;;;;;;;9.68;1.95;;;;;;;;;;5020523;28;20045;-60
2021/06/30 13:48:30;;;;;;;9.60;2.20;;;;;;;;;;5017546;28;20176;-59
2021/06/30 13:50:57;;;;;;;4.78;2.15;;;;;;;;;;5017477;28;20645;-61
2021/06/30 13:53:25;;;;;;;8.20;2.45;;;;;;;;;;5019907;28;20113;-61
2021/06/30 13:55:51;;;;;;;10.60;2.17;;;;;;;;;;5019427;28;20064;-54
2021/06/30 13:58:17;;;;;;;3.75;1.85;;;;;;;;;;5016305;28;20053;-57
2021/06/30 14:00:43;;;;;;;8.48;2.20;;;;;;;;;;5015340;28;20111;-58
2021/06/30 14:03:09;;;;;;;7.35;2.40;;;;;;;;;;5016882;28;20055;-59
2021/06/30 14:05:35;;;;;;;4.63;2.10;;;;;;;;;;5015275;28;20041;-57
2021/06/30 14:08:02;;;;;;;6.93;2.05;;;;;;;;;;5016885;28;20033;-58
2021/06/30 14:10:28;;;;;;;6.43;2.25;;;;;;;;;;5016035;28;20045;-58
2021/06/30 14:12:56;;;;;;;8.38;2.22;;;;;;;;;;5018042;28;20061;-59
2021/06/30 14:15:22;;;;;;;9.05;2.55;;;;;;;;;;5015933;28;20033;-58
2021/06/30 14:17:48;;;;;;;6.78;2.03;;;;;;;;;;5015077;28;20049;-59
2021/06/30 14:20:14;;;;;;;6.47;1.92;;;;;;;;;;5016067;28;20047;-58
2021/06/30 14:22:42;;;;;;;8.30;2.65;;;;;;;;;;5016036;28;20486;-59
2021/06/30 14:25:09;;;;;;;17.83;2.55;;;;;;;;;;5017007;28;20045;-57
2021/06/30 14:27:35;;;;;;;12.82;2.47;;;;;;;;;;5014367;28;20041;-58
2021/06/30 14:30:04;;;;;;;6.68;2.10;;;;;;;;;;5016296;28;20857;-58
2021/06/30 14:32:30;;;;;;;6.75;2.33;;;;;;;;;;5016538;28;20276;-58
2021/06/30 14:34:56;;;;;;;5.47;2.42;;;;;;;;;;5031081;28;20172;-58
2021/06/30 14:37:22;;;;;;;6.80;2.47;;;;;;;;;;5013576;28;20049;-59
2021/06/30 14:39:50;;;;;;;8.50;2.00;;;;;;;;;;5016386;28;20037;-60
2021/06/30 14:42:17;;;;;;;13.20;2.20;;;;;;;;;;5016289;28;20033;-59
2021/06/30 14:44:43;;;;;;;8.27;2.42;;;;;;;;;;5014410;28;20068;-57
2021/06/30 14:47:09;;;;;;;6.93;2.25;;;;;;;;;;5015684;28;20120;-58
2021/06/30 14:49:35;;;;;;;12.43;2.40;;;;;;;;;;5016012;28;20493;-57
2021/06/30 14:52:01;;;;;;;6.20;2.08;;;;;;;;;;5016238;28;20037;-57
2021/06/30 14:54:27;;;;;;;15.05;2.95;;;;;;;;;;5014995;28;20436;-56
2021/06/30 14:56:53;;;;;;;8.75;2.35;;;;;;;;;;5014026;28;20037;-59